Time;durP1;ratioP1;P1;durP2;ratioP2;P2;SDS_P1;SDS_P2;PMS_P1;PMS_P2;Temp;Humidity;BMP_temperature;BMP_pressure;BME280_temperature;BME280_humidity;BME280_pressure;Samples;Min_cycle;Max_cycle;Signal;HPM_P1;HPM_P2
2021/07/06 00:00:35;;;;;;;3.00;2.75;;;;;;;39.05;18.99;94073.41;5075261;28;20082;-53
2021/07/06 00:03:02;;;;;;;8.32;2.90;;;;;;;38.97;19.17;94071.56;5074784;28;20041;-54
2021/07/06 00:05:29;;;;;;;2.70;2.50;;;;;;;39.35;18.76;94070.56;5074714;28;20055;-58
2021/07/06 00:07:56;;;;;;;3.17;2.60;;;;;;;39.08;19.51;94082.66;5074457;28;20047;-54
2021/07/06 00:10:25;;;;;;;2.47;2.28;;;;;;;38.91;19.19;94079.69;5075243;28;20052;-56
2021/07/06 00:12:53;;;;;;;3.10;2.80;;;;;;;38.90;19.36;94089.09;5075073;28;20052;-59
2021/07/06 00:15:23;;;;;;;2.78;2.53;;;;;;;38.86;19.22;94072.16;5075247;28;20052;-53
2021/07/06 00:17:52;;;;;;;3.30;2.78;;;;;;;38.99;19.19;94078.03;5057709;28;20385;-54
2021/07/06 00:20:20;;;;;;;2.90;2.60;;;;;;;38.80;19.68;94076.81;5075202;28;20052;-56
2021/07/06 00:22:47;;;;;;;2.58;2.38;;;;;;;39.04;18.76;94077.38;5056944;28;20063;-54
2021/07/06 00:25:14;;;;;;;3.13;2.50;;;;;;;38.63;19.60;94087.50;5074839;28;20055;-54
2021/07/06 00:27:41;;;;;;;3.05;2.72;;;;;;;38.83;19.25;94079.34;5075119;28;20052;-54
2021/07/06 00:30:09;;;;;;;3.00;2.70;;;;;;;38.82;19.37;94088.75;5073502;28;20045;-58
2021/07/06 00:32:36;;;;;;;4.22;2.53;;;;;;;39.09;19.06;94082.19;5074521;28;20406;-59
2021/07/06 00:35:05;;;;;;;3.20;2.72;;;;;;;39.04;18.98;94082.84;5094720;28;20048;-55
2021/07/06 00:37:33;;;;;;;2.97;2.72;;;;;;;38.95;18.83;94080.22;5092952;28;20048;-56
2021/07/06 00:40:01;;;;;;;2.97;2.60;;;;;;;38.53;19.43;94075.91;5077006;28;20049;-55
2021/07/06 00:42:28;;;;;;;2.80;2.60;;;;;;;38.68;19.16;94084.06;5086090;28;20063;-54
2021/07/06 00:44:55;;;;;;;3.40;2.55;;;;;;;38.85;19.01;94084.31;5074726;28;20461;-53
2021/07/06 00:47:36;;;;;;;3.38;2.80;;;;;;;38.79;18.76;94080.78;5074964;28;20051;-54
2021/07/06 00:50:08;;;;;;;3.03;2.47;;;;;;;38.67;19.19;94081.81;5074856;28;20056;-53
2021/07/06 00:52:36;;;;;;;2.50;2.30;;;;;;;38.45;19.18;94088.41;5072747;28;20055;-56
2021/07/06 00:55:05;;;;;;;3.75;2.85;;;;;;;38.31;19.57;94089.22;5073864;28;20048;-54
2021/07/06 00:57:33;;;;;;;2.50;2.30;;;;;;;38.39;19.18;94095.78;5073939;28;20045;-56
2021/07/06 01:00:12;;;;;;;3.42;2.80;;;;;;;38.77;19.08;94103.06;5056753;28;20047;-55
2021/07/06 01:02:39;;;;;;;3.63;2.50;;;;;;;38.73;19.12;94097.06;5073992;28;20056;-57
2021/07/06 01:05:10;;;;;;;3.05;2.75;;;;;;;38.66;19.23;94096.69;5074001;28;20044;-56
2021/07/06 01:07:37;;;;;;;6.05;3.08;;;;;;;39.13;18.75;94095.66;5084327;28;20048;-53
2021/07/06 01:10:07;;;;;;;3.40;3.10;;;;;;;38.85;18.84;94089.78;5076220;28;20045;-52
2021/07/06 01:12:34;;;;;;;3.30;3.00;;;;;;;38.98;18.95;94092.94;5072374;28;20045;-53
2021/07/06 01:15:03;;;;;;;3.20;2.75;;;;;;;39.03;18.41;94097.72;5074519;28;20056;-55
2021/07/06 01:17:32;;;;;;;3.28;2.70;;;;;;;38.84;18.73;94101.94;5074128;28;20048;-54
2021/07/06 01:20:05;;;;;;;2.72;2.50;;;;;;;38.86;18.78;94099.47;5073891;28;20052;-56
2021/07/06 01:22:33;;;;;;;3.05;2.78;;;;;;;38.55;19.20;94097.28;5073516;28;20470;-57
2021/07/06 01:25:02;;;;;;;3.38;3.08;;;;;;;38.67;18.82;94098.22;5074368;28;20048;-54
2021/07/06 01:27:30;;;;;;;3.33;3.03;;;;;;;38.78;18.99;94101.88;5074416;28;20435;-54
2021/07/06 01:29:57;;;;;;;3.53;3.22;;;;;;;39.09;18.32;94100.56;5072830;28;20455;-53
2021/07/06 01:32:24;;;;;;;3.65;3.15;;;;;;;38.87;18.61;94101.00;5073437;28;20048;-55
2021/07/06 01:34:51;;;;;;;3.25;2.95;;;;;;;39.11;18.36;94107.06;5074276;28;20067;-57
2021/07/06 01:37:19;;;;;;;3.25;2.95;;;;;;;38.92;18.65;94099.56;5073766;28;20057;-59
2021/07/06 01:39:47;;;;;;;5.00;3.20;;;;;;;38.97;18.61;94093.41;5074054;28;20053;-56
2021/07/06 01:42:22;;;;;;;3.30;3.00;;;;;;;38.88;18.73;94091.56;5073530;28;20430;-55
2021/07/06 01:45:07;;;;;;;5.00;2.97;;;;;;;38.80;18.64;94095.94;5073902;28;20044;-54
2021/07/06 01:47:42;;;;;;;3.65;3.33;;;;;;;38.60;19.14;94104.03;5073866;28;20465;-55
2021/07/06 01:50:13;;;;;;;3.92;3.60;;;;;;;38.57;19.10;94092.09;5074170;28;20048;-54
2021/07/06 01:52:44;;;;;;;4.10;3.40;;;;;;;38.94;18.35;94100.59;5058440;28;20373;-51
2021/07/06 01:55:13;;;;;;;4.05;3.22;;;;;;;38.92;18.79;94092.13;5094306;28;20073;-54
2021/07/06 01:57:42;;;;;;;3.72;3.20;;;;;;;38.89;18.49;94100.50;5093484;28;20044;-53
2021/07/06 02:00:12;;;;;;;3.72;3.35;;;;;;;38.66;19.17;94091.25;5093311;28;20039;-60
2021/07/06 02:02:39;;;;;;;3.50;3.20;;;;;;;38.82;18.88;94093.47;5084138;28;20052;-56
2021/07/06 02:05:18;;;;;;;5.25;3.63;;;;;;;38.60;18.68;94095.84;5077505;28;20045;-55
2021/07/06 02:07:47;;;;;;;3.47;3.17;;;;;;;38.65;19.06;94100.66;5088780;28;20377;-55
2021/07/06 02:10:15;;;;;;;4.43;3.70;;;;;;;39.01;18.29;94102.91;5097542;28;20040;-54
2021/07/06 02:12:42;;;;;;;4.57;3.78;;;;;;;35.54;22.41;94109.34;5087500;28;20052;-54
2021/07/06 02:15:12;;;;;;;4.00;3.47;;;;;;;37.33;20.63;94113.66;5076256;28;20055;-54
2021/07/06 02:17:39;;;;;;;3.75;3.45;;;;;;;38.02;19.84;94111.03;5059656;28;20048;-53
2021/07/06 02:20:08;;;;;;;3.97;3.55;;;;;;;38.50;19.13;94117.78;5077107;28;20045;-53
2021/07/06 02:22:36;;;;;;;3.55;3.25;;;;;;;38.70;19.04;94119.09;5076636;28;20048;-55
2021/07/06 02:25:07;;;;;;;4.68;3.20;;;;;;;38.60;18.86;94120.41;5077181;28;20044;-54
2021/07/06 02:27:34;;;;;;;3.67;3.28;;;;;;;38.54;18.95;94117.63;5077498;28;20060;-58
2021/07/06 02:30:01;;;;;;;3.60;3.10;;;;;;;38.80;18.91;94128.72;5077506;28;20048;-58
2021/07/06 02:32:28;;;;;;;4.65;3.47;;;;;;;38.77;18.62;94124.91;5075209;28;20048;-53
2021/07/06 02:34:55;;;;;;;3.85;3.47;;;;;;;38.94;18.60;94122.44;5076546;28;20052;-59
2021/07/06 02:37:22;;;;;;;3.85;3.42;;;;;;;38.98;18.60;94123.00;5076626;28;20056;-58
2021/07/06 02:39:49;;;;;;;4.05;3.75;;;;;;;38.93;18.82;94120.94;5077110;28;20041;-55
2021/07/06 02:42:17;;;;;;;4.25;3.50;;;;;;;39.09;18.69;94128.66;5075556;28;20044;-56
2021/07/06 02:44:44;;;;;;;4.47;3.80;;;;;;;38.84;18.97;94134.72;5076353;28;20052;-55
2021/07/06 02:47:11;;;;;;;4.28;3.50;;;;;;;38.81;18.62;94130.22;5075872;28;20044;-56
2021/07/06 02:49:38;;;;;;;6.35;3.78;;;;;;;39.26;18.43;94128.09;5075654;28;20056;-57
2021/07/06 02:52:05;;;;;;;3.97;3.60;;;;;;;38.76;18.79;94133.59;5076146;28;20040;-58
2021/07/06 02:54:32;;;;;;;3.92;3.60;;;;;;;38.78;18.99;94131.16;5075777;28;20365;-60
2021/07/06 02:56:59;;;;;;;4.50;3.92;;;;;;;38.65;19.15;94122.50;5076084;28;20051;-58
2021/07/06 02:59:26;;;;;;;5.18;3.55;;;;;;;38.74;19.07;94128.59;5076705;28;20044;-54
2021/07/06 03:01:53;;;;;;;7.60;3.85;;;;;;;38.80;18.92;94134.16;5091966;28;20055;-56
2021/07/06 03:04:20;;;;;;;6.07;3.78;;;;;;;38.96;18.57;94144.56;5076372;28;20366;-57
2021/07/06 03:06:48;;;;;;;5.13;4.18;;;;;;;38.74;18.87;94141.50;5076065;28;20052;-54
2021/07/06 03:09:15;;;;;;;5.22;3.70;;;;;;;38.78;19.15;94139.34;5076479;28;20055;-54
2021/07/06 03:11:44;;;;;;;4.10;3.70;;;;;;;38.77;18.70;94140.56;5076210;28;20056;-54
2021/07/06 03:14:11;;;;;;;5.95;4.10;;;;;;;38.62;18.86;94139.81;5075272;28;20052;-55
2021/07/06 03:16:38;;;;;;;4.25;3.58;;;;;;;38.91;18.61;94142.50;5074989;28;20048;-55
2021/07/06 03:19:06;;;;;;;6.97;3.92;;;;;;;38.73;18.72;94146.22;5075443;28;20044;-53
2021/07/06 03:21:33;;;;;;;4.70;4.22;;;;;;;38.41;19.34;94158.84;5075005;28;20052;-56
2021/07/06 03:24:00;;;;;;;4.22;3.83;;;;;;;38.54;19.49;94156.59;5076872;28;20051;-53
2021/07/06 03:26:27;;;;;;;4.68;4.22;;;;;;;38.89;19.12;94158.63;5076154;28;20079;-54
2021/07/06 03:28:54;;;;;;;5.32;3.78;;;;;;;38.61;19.45;94157.44;5095353;28;20048;-54
2021/07/06 03:31:22;;;;;;;4.78;4.30;;;;;;;38.82;19.07;94159.78;5096387;28;20054;-56
2021/07/06 03:33:49;;;;;;;4.22;3.83;;;;;;;38.62;18.78;94161.66;5079218;28;20044;-55
2021/07/06 03:36:16;;;;;;;4.50;4.10;;;;;;;38.50;19.32;94158.75;5075274;28;20052;-54
2021/07/06 03:38:43;;;;;;;4.88;4.03;;;;;;;38.75;18.81;94160.16;5073522;28;20053;-53
2021/07/06 03:41:10;;;;;;;5.32;4.28;;;;;;;38.84;18.73;94156.56;5075675;28;20336;-54
2021/07/06 03:43:37;;;;;;;5.20;4.05;;;;;;;38.80;18.98;94161.47;5075214;28;20044;-55
2021/07/06 03:46:04;;;;;;;4.85;4.00;;;;;;;38.19;19.38;94169.38;5075954;28;20044;-53
2021/07/06 03:48:31;;;;;;;5.63;3.97;;;;;;;38.67;18.89;94163.75;5074475;28;20056;-55
2021/07/06 03:50:59;;;;;;;4.30;3.90;;;;;;;38.66;18.90;94162.25;5074291;28;20044;-58
2021/07/06 03:53:26;;;;;;;4.75;4.25;;;;;;;38.34;19.04;94177.59;5074494;28;20171;-52
2021/07/06 03:55:53;;;;;;;4.53;3.70;;;;;;;38.71;18.75;94170.53;5075685;28;20462;-55
2021/07/06 03:58:20;;;;;;;4.55;4.13;;;;;;;37.32;21.09;94172.13;5073199;28;20047;-58
2021/07/06 04:00:47;;;;;;;7.13;4.03;;;;;;;37.28;20.72;94174.28;5073053;28;20052;-56
2021/07/06 04:03:14;;;;;;;7.22;4.20;;;;;;;37.56;20.26;94174.09;5075149;28;20052;-57
2021/07/06 04:05:41;;;;;;;6.50;4.13;;;;;;;37.54;20.43;94177.28;5074779;28;20056;-53
2021/07/06 04:08:08;;;;;;;5.15;4.55;;;;;;;34.71;23.92;94166.59;5074654;28;20044;-52
2021/07/06 04:10:35;;;;;;;5.93;4.50;;;;;;;36.18;22.14;94178.53;5075340;28;20045;-54
2021/07/06 04:13:02;;;;;;;6.57;4.30;;;;;;;36.85;21.44;94182.91;5074926;28;20083;-56
2021/07/06 04:15:29;;;;;;;7.05;4.20;;;;;;;36.94;21.25;94180.16;5075272;28;20355;-52
2021/07/06 04:17:56;;;;;;;4.85;4.45;;;;;;;37.10;21.46;94196.13;5074863;28;20044;-57
2021/07/06 04:20:29;;;;;;;4.30;3.90;;;;;;;37.31;20.51;94189.69;5074278;28;20501;-59
2021/07/06 04:22:57;;;;;;;4.18;3.88;;;;;;;37.29;21.38;94183.94;5074567;28;20451;-56
2021/07/06 04:25:24;;;;;;;7.05;4.30;;;;;;;36.91;22.02;94192.72;5074934;28;20055;-56
2021/07/06 04:27:53;;;;;;;4.20;3.90;;;;;;;37.26;21.78;94195.78;5074882;28;20048;-53
2021/07/06 04:30:21;;;;;;;4.68;4.00;;;;;;;37.11;21.64;94205.81;5074949;28;20059;-56
2021/07/06 04:32:48;;;;;;;6.65;4.38;;;;;;;36.63;21.96;94207.63;5074737;28;20044;-53
2021/07/06 04:35:15;;;;;;;4.90;4.25;;;;;;;36.95;22.24;94217.81;5074873;28;20051;-53
2021/07/06 04:37:42;;;;;;;4.70;4.18;;;;;;;37.14;21.45;94215.03;5073952;28;20052;-55
2021/07/06 04:40:09;;;;;;;4.57;4.10;;;;;;;37.07;21.93;94215.38;5075009;28;20363;-56
2021/07/06 04:42:36;;;;;;;5.57;4.20;;;;;;;36.73;22.34;94220.75;5074308;28;20048;-50
2021/07/06 04:45:04;;;;;;;5.15;4.18;;;;;;;36.95;21.53;94225.25;5074771;28;20052;-56
2021/07/06 04:47:32;;;;;;;4.35;3.95;;;;;;;37.22;21.90;94230.59;5074772;28;20048;-53
2021/07/06 04:49:59;;;;;;;5.95;4.20;;;;;;;37.59;21.19;94227.69;5075036;28;20052;-55
2021/07/06 04:52:26;;;;;;;6.38;3.88;;;;;;;37.15;21.81;94228.19;5073612;28;20049;-53
2021/07/06 04:54:53;;;;;;;5.45;4.53;;;;;;;37.26;21.47;94236.66;5074089;28;20055;-55
2021/07/06 04:57:21;;;;;;;5.55;4.32;;;;;;;37.95;20.94;94240.34;5074269;28;20056;-53
2021/07/06 04:59:49;;;;;;;4.70;4.22;;;;;;;37.08;21.34;94239.44;5073652;28;20043;-55
2021/07/06 05:02:16;;;;;;;5.00;4.30;;;;;;;37.85;20.61;94244.38;5074267;28;20041;-55
2021/07/06 05:04:43;;;;;;;4.18;3.65;;;;;;;37.33;21.32;94249.19;5074474;28;20469;-56
2021/07/06 05:07:10;;;;;;;5.03;4.53;;;;;;;37.74;21.08;94242.16;5085005;28;20040;-54
2021/07/06 05:09:38;;;;;;;4.32;3.92;;;;;;;37.55;21.29;94251.66;5073982;28;20382;-57
2021/07/06 05:12:05;;;;;;;4.55;4.15;;;;;;;36.87;22.24;94257.50;5073384;28;20055;-61
2021/07/06 05:14:32;;;;;;;5.40;4.40;;;;;;;37.02;22.20;94252.94;5073165;28;20056;-57
2021/07/06 05:17:01;;;;;;;5.45;3.85;;;;;;;37.09;21.65;94259.25;5072876;28;20049;-57
2021/07/06 05:19:28;;;;;;;4.63;4.22;;;;;;;37.15;21.81;94265.56;5073703;28;20481;-55
2021/07/06 05:21:55;;;;;;;4.30;3.90;;;;;;;37.09;22.42;94260.00;5073574;28;20064;-55
2021/07/06 05:24:22;;;;;;;4.63;4.22;;;;;;;36.89;21.97;94265.97;5072731;28;20056;-53
2021/07/06 05:26:49;;;;;;;4.80;4.38;;;;;;;37.24;21.92;94262.84;5073439;28;20071;-59
2021/07/06 05:29:16;;;;;;;5.15;4.50;;;;;;;37.02;21.77;94255.66;5074382;28;20051;-56
2021/07/06 05:31:44;;;;;;;5.28;4.20;;;;;;;36.99;22.34;94256.56;5073756;28;20044;-55
2021/07/06 05:34:11;;;;;;;7.03;4.32;;;;;;;37.08;22.58;94263.94;5073888;28;20117;-56
2021/07/06 05:36:38;;;;;;;4.38;3.85;;;;;;;37.10;22.72;94263.47;5072593;28;20063;-58
2021/07/06 05:39:08;;;;;;;5.05;3.90;;;;;;;37.24;22.30;94263.59;5076980;28;20040;-59
2021/07/06 05:41:35;;;;;;;4.43;3.93;;;;;;;37.13;22.43;94274.22;5078124;28;20052;-57
2021/07/06 05:44:02;;;;;;;4.82;4.32;;;;;;;37.13;22.45;94276.94;5076634;28;20274;-55
2021/07/06 05:46:30;;;;;;;5.85;3.85;;;;;;;36.96;22.82;94270.34;5092825;28;20044;-54
2021/07/06 05:48:57;;;;;;;4.47;4.07;;;;;;;37.05;22.73;94270.31;5077854;28;20052;-59
2021/07/06 05:51:24;;;;;;;5.13;4.22;;;;;;;37.30;22.04;94275.41;5077921;28;20053;-56
2021/07/06 05:53:51;;;;;;;4.60;4.20;;;;;;;37.74;21.75;94272.16;5077222;28;20051;-58
2021/07/06 05:56:18;;;;;;;5.88;4.20;;;;;;;37.80;22.32;94270.31;5077464;28;20051;-57
2021/07/06 05:58:46;;;;;;;4.60;4.20;;;;;;;37.84;22.07;94270.88;5076949;28;20374;-51
2021/07/06 06:01:14;;;;;;;4.13;3.83;;;;;;;38.15;21.67;94272.47;5077260;28;20048;-54
2021/07/06 06:03:42;;;;;;;4.57;4.07;;;;;;;37.67;21.92;94277.91;5077689;28;20052;-54
2021/07/06 06:06:09;;;;;;;4.40;4.00;;;;;;;38.16;21.78;94272.00;5077814;28;20040;-61
2021/07/06 06:08:36;;;;;;;5.68;4.57;;;;;;;38.51;20.83;94272.19;5076977;28;20052;-54
2021/07/06 06:11:04;;;;;;;7.85;4.30;;;;;;;38.31;21.41;94284.97;5076788;28;20085;-60
2021/07/06 06:13:31;;;;;;;6.43;4.53;;;;;;;39.12;20.64;94271.78;5077120;28;20048;-55
2021/07/06 06:15:58;;;;;;;5.35;3.95;;;;;;;38.63;20.95;94256.03;5077739;28;20473;-57
2021/07/06 06:18:25;;;;;;;7.43;4.20;;;;;;;38.69;21.18;94270.53;5077449;28;20059;-53
2021/07/06 06:20:52;;;;;;;6.38;4.15;;;;;;;38.26;21.73;94278.19;5076626;28;20090;-56
2021/07/06 06:23:19;;;;;;;6.38;4.30;;;;;;;38.64;21.14;94279.41;5076989;28;20036;-55
2021/07/06 06:25:46;;;;;;;4.53;4.00;;;;;;;39.12;21.10;94269.81;5076687;28;20366;-52
2021/07/06 06:28:13;;;;;;;6.30;4.20;;;;;;;38.38;21.25;94279.91;5077425;28;20052;-56
2021/07/06 06:30:41;;;;;;;4.90;4.38;;;;;;;38.83;21.20;94269.81;5076137;28;20458;-57
2021/07/06 06:33:08;;;;;;;4.75;3.97;;;;;;;38.56;21.32;94257.91;5075777;28;20040;-59
2021/07/06 06:35:35;;;;;;;5.50;4.15;;;;;;;38.61;21.45;94272.13;5077198;28;20582;-59
2021/07/06 06:38:02;;;;;;;6.60;4.28;;;;;;;38.97;21.07;94266.28;5075275;28;20049;-55
2021/07/06 06:40:29;;;;;;;5.03;4.57;;;;;;;39.63;19.46;94270.56;5076728;28;20474;-56
2021/07/06 06:42:56;;;;;;;4.45;4.05;;;;;;;38.84;20.63;94271.31;5076627;28;20048;-54
2021/07/06 06:45:23;;;;;;;4.32;4.00;;;;;;;39.01;20.65;94268.81;5077054;28;20370;-55
2021/07/06 06:47:50;;;;;;;7.57;4.00;;;;;;;39.17;20.66;94269.13;5058901;28;20052;-52
2021/07/06 06:50:18;;;;;;;5.70;4.28;;;;;;;39.23;20.43;94257.53;5075586;28;20044;-56
2021/07/06 06:52:45;;;;;;;5.43;4.00;;;;;;;39.36;20.46;94255.25;5092352;28;20056;-57
2021/07/06 06:55:12;;;;;;;4.40;4.00;;;;;;;39.27;20.48;94258.06;5076455;28;20053;-58
2021/07/06 06:57:39;;;;;;;4.20;3.90;;;;;;;39.71;19.77;94258.72;5076839;28;20070;-54
2021/07/06 07:00:08;;;;;;;5.22;4.72;;;;;;;39.76;19.63;94260.78;5076867;28;20059;-54
2021/07/06 07:02:38;;;;;;;5.00;4.05;;;;;;;40.25;19.14;94255.66;5076311;28;20051;-59
2021/07/06 07:05:05;;;;;;;6.05;3.47;;;;;;;40.67;18.91;94255.13;5076088;28;20048;-56
2021/07/06 07:07:32;;;;;;;4.88;4.25;;;;;;;41.05;18.61;94253.22;5086832;28;20273;-54
2021/07/06 07:09:59;;;;;;;5.15;4.10;;;;;;;40.47;18.67;94264.13;5096522;28;20075;-55
2021/07/06 07:12:27;;;;;;;4.43;3.70;;;;;;;41.04;18.30;94263.41;5094430;28;20051;-59
2021/07/06 07:14:54;;;;;;;5.07;3.92;;;;;;;40.94;18.39;94260.13;5066736;28;20446;-59
2021/07/06 07:17:22;;;;;;;3.90;3.53;;;;;;;40.81;18.74;94254.25;5076439;28;20049;-55
2021/07/06 07:19:49;;;;;;;4.35;3.95;;;;;;;40.39;19.02;94260.31;5058223;28;20071;-54
2021/07/06 07:22:17;;;;;;;4.80;3.80;;;;;;;40.70;18.60;94251.41;5091264;28;20489;-58
2021/07/06 07:24:44;;;;;;;4.80;4.07;;;;;;;41.48;17.76;94257.53;5075721;28;20048;-56
2021/07/06 07:27:11;;;;;;;3.70;3.40;;;;;;;41.00;18.30;94251.19;5069619;22;20069;-55
2021/07/06 07:29:38;;;;;;;3.55;3.25;;;;;;;41.05;18.09;94245.72;5043875;28;20063;-58
2021/07/06 07:32:06;;;;;;;5.07;3.35;;;;;;;41.30;16.57;94241.44;5038672;28;20363;-57
2021/07/06 07:34:34;;;;;;;4.28;3.35;;;;;;;41.25;17.01;94248.41;5020485;28;20045;-53
2021/07/06 07:37:02;;;;;;;3.95;3.55;;;;;;;40.73;17.60;94242.22;5046962;28;20048;-52
2021/07/06 07:39:30;;;;;;;5.35;3.28;;;;;;;41.23;17.45;94252.88;5062163;28;20049;-53
2021/07/06 07:41:57;;;;;;;5.22;3.42;;;;;;;42.16;16.86;94248.41;5054944;28;20055;-53
2021/07/06 07:44:24;;;;;;;4.88;3.53;;;;;;;41.94;17.38;94247.56;5055802;28;20485;-51
2021/07/06 07:46:51;;;;;;;4.50;3.55;;;;;;;41.99;16.92;94250.31;5050101;28;20056;-54
2021/07/06 07:49:18;;;;;;;4.53;4.00;;;;;;;41.84;16.96;94244.25;5045810;28;20056;-53
2021/07/06 07:51:46;;;;;;;3.55;3.25;;;;;;;42.52;16.73;94240.53;5055817;28;20052;-49
2021/07/06 07:54:13;;;;;;;5.15;3.20;;;;;;;43.07;15.69;94241.84;5054975;28;20045;-55
2021/07/06 07:56:41;;;;;;;3.83;2.95;;;;;;;42.88;15.58;94243.59;5054155;28;20060;-55
2021/07/06 07:59:10;;;;;;;3.60;3.30;;;;;;;43.20;15.58;94241.31;5054339;28;20053;-51
2021/07/06 08:01:37;;;;;;;3.92;3.63;;;;;;;43.16;15.49;94247.06;5034295;28;20057;-56
2021/07/06 08:04:05;;;;;;;5.13;3.83;;;;;;;41.65;16.77;94243.19;5035930;28;20053;-47
2021/07/06 08:06:33;;;;;;;3.80;3.40;;;;;;;43.23;15.87;94246.56;5037413;28;20053;-71
2021/07/06 08:09:00;;;;;;;6.13;3.80;;;;;;;43.39;15.63;94248.56;5054388;28;20053;-51
2021/07/06 08:11:27;;;;;;;4.97;3.45;;;;;;;43.65;15.54;94253.75;5047243;28;20045;-47
2021/07/06 08:13:54;;;;;;;5.55;3.42;;;;;;;43.06;15.61;94254.09;5043646;28;20052;-48
2021/07/06 08:16:22;;;;;;;3.50;3.20;;;;;;;43.36;15.76;94249.56;5042433;28;20371;-40
2021/07/06 08:18:49;;;;;;;5.10;3.28;;;;;;;43.56;15.10;94248.53;5043282;28;20049;-50
2021/07/06 08:21:16;;;;;;;5.95;3.38;;;;;;;43.43;15.42;94247.56;5048461;28;20048;-66
2021/07/06 08:23:43;;;;;;;4.53;3.60;;;;;;;43.46;15.23;94252.03;5044172;28;20056;-58
2021/07/06 08:26:11;;;;;;;3.67;3.00;;;;;;;43.15;15.53;94251.06;5050291;28;20482;-56
2021/07/06 08:28:38;;;;;;;3.92;3.15;;;;;;;43.63;14.62;94245.25;5052111;28;20053;-54
2021/07/06 08:31:05;;;;;;;6.18;3.30;;;;;;;43.52;15.14;94250.06;5043769;28;20447;-59
2021/07/06 08:33:32;;;;;;;6.78;3.10;;;;;;;43.04;14.56;94235.34;5042819;28;20046;-54
2021/07/06 08:35:59;;;;;;;3.70;3.33;;;;;;;42.22;15.62;94250.44;5041294;28;20056;-50
2021/07/06 08:38:26;;;;;;;6.93;3.10;;;;;;;43.34;15.17;94252.06;5034477;28;20045;-51
2021/07/06 08:40:53;;;;;;;3.50;3.20;;;;;;;43.50;15.52;94247.06;5033602;28;20045;-53
2021/07/06 08:43:20;;;;;;;4.18;3.47;;;;;;;43.32;15.56;94260.09;5015737;28;20046;-55
2021/07/06 08:45:47;;;;;;;4.68;3.20;;;;;;;43.21;15.63;94253.84;5040893;28;20048;-55
2021/07/06 08:48:15;;;;;;;7.22;3.00;;;;;;;43.08;15.00;94252.31;5042382;28;20045;-52
2021/07/06 08:50:45;;;;;;;5.93;3.55;;;;;;;42.49;15.77;94258.00;5060918;28;20443;-54
2021/07/06 08:53:12;;;;;;;3.80;3.25;;;;;;;43.45;15.16;94261.56;5052973;28;20053;-58
2021/07/06 08:55:39;;;;;;;3.97;3.67;;;;;;;43.34;15.43;94260.34;5044447;28;20053;-46
2021/07/06 08:58:07;;;;;;;3.70;3.20;;;;;;;43.48;15.50;94255.81;5044942;28;20057;-53
2021/07/06 09:00:34;;;;;;;3.42;3.10;;;;;;;44.14;14.95;94247.88;5042466;28;20053;-50
2021/07/06 09:03:04;;;;;;;5.60;2.97;;;;;;;44.08;15.51;94247.16;5047740;28;20045;-49
2021/07/06 09:06:01;;;;;;;4.00;3.30;;;;;;;43.56;14.64;94256.03;5050721;28;20057;-73
2021/07/06 09:08:29;;;;;;;3.38;3.00;;;;;;;43.68;15.02;94254.78;5050702;28;20056;-52
2021/07/06 09:10:56;;;;;;;3.10;2.83;;;;;;;43.82;14.61;94256.50;5052662;28;20045;-58
2021/07/06 09:13:27;;;;;;;3.35;3.05;;;;;;;43.77;14.40;94260.03;5052049;28;20045;-53
2021/07/06 09:15:55;;;;;;;4.47;2.95;;;;;;;43.82;14.71;94251.00;5052307;28;20049;-51
2021/07/06 09:18:28;;;;;;;3.30;3.00;;;;;;;44.02;14.47;94247.16;5051594;28;20056;-49
2021/07/06 09:21:06;;;;;;;6.03;4.57;;;;;;;44.37;14.79;94252.00;5051133;28;20374;-52
2021/07/06 09:23:35;;;;;;;4.03;3.63;;;;;;;43.67;14.85;94251.28;5037483;28;20056;-46
2021/07/06 09:26:22;;;;;;;4.38;4.00;;;;;;;43.89;14.77;94244.19;5047104;28;20048;-57
2021/07/06 09:28:58;;;;;;;3.65;3.30;;;;;;;43.69;14.14;94248.00;5050654;28;20056;-66
2021/07/06 09:31:31;;;;;;;4.82;3.10;;;;;;;43.19;14.19;94251.56;5054588;28;20064;-58
2021/07/06 09:34:10;;;;;;;33.90;20.50;;;;;;;43.82;13.84;94245.47;5054088;28;20076;-65
2021/07/06 09:36:43;;;;;;;16.05;6.82;;;;;;;44.08;14.45;94244.41;5052373;28;20061;-67
2021/07/06 09:39:17;;;;;;;6.10;4.78;;;;;;;43.88;14.78;94243.44;5053265;28;20045;-67
2021/07/06 09:42:03;;;;;;;41.22;25.20;;;;;;;43.75;14.71;94246.03;5054309;28;20052;-67
2021/07/06 09:44:38;;;;;;;85.75;48.90;;;;;;;44.39;14.96;94249.50;5054084;28;20052;-64
2021/07/06 09:47:16;;;;;;;8.00;6.55;;;;;;;44.53;14.02;94250.47;5036148;28;20065;-68
2021/07/06 09:49:59;;;;;;;6.75;5.43;;;;;;;44.40;14.03;94248.25;5054328;28;20510;-68
2021/07/06 09:52:26;;;;;;;6.75;3.97;;;;;;;44.25;13.83;94243.06;5054018;28;20063;-68
2021/07/06 09:54:54;;;;;;;4.22;3.30;;;;;;;44.08;14.33;94238.91;5069183;28;20412;-63
2021/07/06 09:57:28;;;;;;;5.53;4.32;;;;;;;44.15;14.04;94241.13;5053151;28;20052;-68
2021/07/06 10:00:11;;;;;;;4.32;3.92;;;;;;;43.43;14.74;94248.31;5054736;28;20490;-68
2021/07/06 10:02:45;;;;;;;6.28;3.70;;;;;;;43.70;14.62;94238.50;5036326;28;20049;-68
2021/07/06 10:05:18;;;;;;;3.53;3.22;;;;;;;43.75;14.95;94228.75;5020680;28;20052;-66
2021/07/06 10:07:45;;;;;;;4.07;3.40;;;;;;;43.58;15.44;94242.53;5053675;28;20049;-52
2021/07/06 10:10:13;;;;;;;5.00;3.42;;;;;;;44.48;14.52;94243.69;5052459;28;20049;-52
2021/07/06 10:12:43;;;;;;;4.85;3.17;;;;;;;44.32;14.31;94236.28;5069110;28;20048;-58
2021/07/06 10:15:13;;;;;;;6.88;5.43;;;;;;;44.21;15.01;94241.81;5068772;28;20045;-50
2021/07/06 10:17:41;;;;;;;3.38;3.00;;;;;;;43.96;13.86;94238.91;5036015;28;20055;-53
2021/07/06 10:20:14;;;;;;;3.88;2.55;;;;;;;43.70;14.23;94244.00;5053493;28;20049;-59
2021/07/06 10:22:41;;;;;;;3.22;2.92;;;;;;;44.01;13.76;94233.91;5052882;28;20044;-54
2021/07/06 10:25:10;;;;;;;2.90;2.70;;;;;;;44.24;13.90;94229.78;5055806;28;20448;-57
2021/07/06 10:27:43;;;;;;;5.50;2.90;;;;;;;43.96;13.87;94233.41;5066921;28;20049;-55
2021/07/06 10:30:16;;;;;;;2.75;2.55;;;;;;;43.89;13.98;94239.44;5057080;28;20076;-58
2021/07/06 10:32:54;;;;;;;4.32;2.75;;;;;;;44.16;14.02;94234.34;5057120;28;20041;-57
2021/07/06 10:35:42;;;;;;;3.22;2.60;;;;;;;44.08;13.91;94234.13;5072818;28;20085;-50
2021/07/06 10:38:31;;;;;;;3.00;2.80;;;;;;;43.47;14.25;94237.06;5055880;28;20045;-54
2021/07/06 10:41:11;;;;;;;3.05;2.75;;;;;;;44.05;13.75;94224.13;5039089;28;20075;-56
2021/07/06 10:43:38;;;;;;;2.70;2.50;;;;;;;44.22;13.15;94232.31;5057181;28;20354;-56
2021/07/06 10:46:20;;;;;;;2.70;2.50;;;;;;;43.92;13.89;94232.91;5056333;28;20049;-49
2021/07/06 10:48:50;;;;;;;3.30;2.97;;;;;;;43.78;13.98;94222.97;5055978;28;20049;-53
2021/07/06 10:51:35;;;;;;;3.88;2.80;;;;;;;43.92;14.13;94223.91;5038893;28;20060;-52
2021/07/06 10:54:24;;;;;;;3.53;2.53;;;;;;;43.49;14.09;94215.31;5055968;28;20049;-52
2021/07/06 10:56:57;;;;;;;4.97;2.70;;;;;;;44.16;14.13;94217.81;5044284;28;20060;-51
2021/07/06 10:59:30;;;;;;;3.75;2.85;;;;;;;43.80;13.75;94214.97;5055890;28;20056;-48
2021/07/06 11:02:08;;;;;;;2.83;2.55;;;;;;;43.77;13.73;94215.97;5055796;28;20494;-50
2021/07/06 11:04:46;;;;;;;3.70;2.70;;;;;;;43.49;13.64;94218.06;5056670;28;20045;-52
2021/07/06 11:07:15;;;;;;;3.47;2.80;;;;;;;43.19;14.19;94224.06;5055542;28;20056;-51
2021/07/06 11:09:42;;;;;;;2.95;2.72;;;;;;;43.45;14.11;94218.28;5055523;28;20321;-52
2021/07/06 11:12:49;;;;;;;3.45;2.80;;;;;;;43.01;14.92;94219.09;5054310;28;20045;-54
2021/07/06 11:15:30;;;;;;;3.30;3.00;;;;;;;43.25;14.48;94216.56;5052747;28;20053;-53
2021/07/06 11:18:10;;;;;;;3.08;2.80;;;;;;;43.79;14.23;94215.47;5038858;28;20045;-51
2021/07/06 11:20:39;;;;;;;5.40;2.90;;;;;;;43.59;14.80;94211.00;5051502;28;20037;-51
2021/07/06 11:23:10;;;;;;;3.15;2.60;;;;;;;43.83;13.94;94211.19;5056201;28;20044;-50
2021/07/06 11:25:39;;;;;;;4.07;2.75;;;;;;;43.87;14.60;94208.91;5053645;28;20329;-53
2021/07/06 11:28:26;;;;;;;3.40;3.00;;;;;;;44.28;14.58;94208.25;5047291;28;20056;-53
2021/07/06 11:30:56;;;;;;;3.05;2.78;;;;;;;43.71;14.19;94212.47;5055495;28;20053;-52
2021/07/06 11:33:26;;;;;;;3.35;2.90;;;;;;;43.01;15.42;94213.59;5056069;28;20474;-44
2021/07/06 11:35:54;;;;;;;3.17;2.70;;;;;;;42.94;15.23;94214.09;5065245;28;20049;-44
2021/07/06 11:38:29;;;;;;;3.65;2.95;;;;;;;42.69;15.39;94224.81;5050065;28;20045;-49
2021/07/06 11:41:04;;;;;;;3.60;3.03;;;;;;;43.37;14.68;94223.56;5034723;28;20048;-56
2021/07/06 11:43:32;;;;;;;3.22;2.90;;;;;;;43.62;14.66;94221.00;5053973;28;20360;-56